»·PEaware :: N143VT KMRY-KSNA

N143VT :: KMRY-KSNA

FLIGHT INFORMATION

Flight Status: Arrived
Operator: Privately registered:
United States
More flights under this callsign
Pilot: Anonymous 16492 (16492)
Aircraft: ECLIPSE 500
(EA50)
More flights by this aircraft type
Origin: KMRY Monterey Peninsula
United States
Destination: KSNA John Wayne-Orange Co
United States
More flights between these airports :: More routes between these airports
Route: +MRY4 PRB RDHOT OHSEA1
File this flight plan on PilotEdge
Remarks:
Altitude:
(Current/Filed)
31,000ft
Speed:
(Current/Filed)
300kts
Departed: 13-Feb-18 07:23 PM
Arrived: 13-Feb-18 08:41 PM
Distance/Time
Traveled:
262nm/1:18
Distance/Time
To Go:
Arrived

Flight Plot

Page will automatically refresh every two minutes.

Flight plan parsing failed; only flown route is shown


Map Options




Map Legend


Flown Route
Filed Route
Departure Airport
Arrival Airport
Navaid (VOR, NDB)
Fix

Horizontal Profiles

Position Reports

Time Latitude Longitude Heading Altitude Ground
Speed
13-Feb-18 19:14 36.588083 -121.851769 16 165ft 0kts
13-Feb-18 19:15 36.588083 -121.851769 16 165ft 0kts
13-Feb-18 19:16 36.588083 -121.851769 16 165ft 0kts
13-Feb-18 19:17 36.588083 -121.851769 16 165ft 0kts
13-Feb-18 19:18 36.588083 -121.851769 16 165ft 0kts
13-Feb-18 19:21 36.588083 -121.851769 16 165ft 0kts
13-Feb-18 19:22 36.588083 -121.851769 16 165ft 0kts
13-Feb-18 19:23 36.588083 -121.851769 16 165ft 0kts
13-Feb-18 19:24 36.588374 -121.851586 55 165ft 3kts
13-Feb-18 19:25 36.586807 -121.846333 122 165ft 17kts
13-Feb-18 19:26 36.585037 -121.841532 114 165ft 15kts
13-Feb-18 19:27 36.582932 -121.835415 106 165ft 13kts
13-Feb-18 19:28 36.582839 -121.834761 88 165ft 0kts
13-Feb-18 19:29 36.582889 -121.833957 68 165ft 10kts
13-Feb-18 19:30 36.584406 -121.836732 293 165ft 64kts
13-Feb-18 19:31 36.603109 -121.885160 314 1593ft 168kts
13-Feb-18 19:34 36.651333 -121.835513 137 8072ft 160kts
13-Feb-18 19:35 36.625618 -121.803308 135 9947ft 159kts
13-Feb-18 19:36 36.589125 -121.757616 133 12309ft 163kts
13-Feb-18 19:37 36.562382 -121.724029 132 13858ft 167kts
13-Feb-18 19:38 36.523551 -121.675349 132 15883ft 174kts
13-Feb-18 19:39 36.494923 -121.639521 131 17237ft 178kts
13-Feb-18 19:40 36.459760 -121.595570 131 18748ft 183kts
13-Feb-18 19:43 36.347368 -121.455504 130 22707ft 199kts
13-Feb-18 19:44 36.307873 -121.406431 129 23859ft 204kts
13-Feb-18 19:45 36.267329 -121.356130 129 24931ft 209kts
13-Feb-18 19:46 36.225953 -121.304893 130 25955ft 214kts
13-Feb-18 19:47 36.183357 -121.252215 130 26908ft 220kts
13-Feb-18 19:48 36.139810 -121.198464 129 27831ft 224kts
13-Feb-18 19:49 36.096305 -121.144730 131 28861ft 219kts
13-Feb-18 19:50 36.053284 -121.091664 133 29718ft 219kts
13-Feb-18 19:51 36.009975 -121.038388 136 30427ft 223kts
13-Feb-18 19:52 35.965178 -120.983496 138 30940ft 234kts
13-Feb-18 19:53 35.916093 -120.923619 138 30974ft 263kts
13-Feb-18 19:54 35.863058 -120.858917 138 30976ft 288kts
13-Feb-18 19:55 35.811513 -120.796064 138 30975ft 295kts
13-Feb-18 19:56 35.752756 -120.724555 138 31160ft 294kts
13-Feb-18 19:57 35.693759 -120.652941 138 31175ft 302kts
13-Feb-18 19:58 35.654393 -120.561947 114 31179ft 308kts
13-Feb-18 19:59 35.624099 -120.463955 113 31171ft 309kts
13-Feb-18 20:00 35.592260 -120.367296 133 31175ft 303kts
13-Feb-18 20:01 35.540649 -120.310457 142 31176ft 300kts
13-Feb-18 20:02 35.477669 -120.245701 143 31177ft 300kts
13-Feb-18 20:03 35.414466 -120.182082 143 31190ft 300kts
13-Feb-18 20:04 35.350661 -120.118347 143 31198ft 300kts
13-Feb-18 20:05 35.286661 -120.054649 143 31202ft 300kts
13-Feb-18 20:06 35.222465 -119.990929 143 31203ft 300kts
13-Feb-18 20:07 35.158683 -119.927778 143 31198ft 300kts
13-Feb-18 20:08 35.094568 -119.864400 143 31193ft 300kts
13-Feb-18 20:09 35.033188 -119.796268 138 31189ft 301kts
13-Feb-18 20:10 34.974900 -119.726221 140 31187ft 295kts
13-Feb-18 20:11 34.917466 -119.657071 142 31189ft 289kts
13-Feb-18 20:12 34.863661 -119.592444 144 31200ft 284kts
13-Feb-18 20:13 34.807739 -119.525472 144 31199ft 284kts
13-Feb-18 20:14 34.751782 -119.458470 144 31194ft 284kts
13-Feb-18 20:15 34.695684 -119.391390 144 31190ft 286kts
13-Feb-18 20:16 34.643855 -119.329537 144 31187ft 285kts
13-Feb-18 20:17 34.591357 -119.266495 144 31181ft 285kts
13-Feb-18 20:18 34.536602 -119.200822 144 30904ft 292kts
13-Feb-18 20:19 34.480506 -119.134495 144 29417ft 269kts
13-Feb-18 20:20 34.428971 -119.074522 143 27947ft 263kts
13-Feb-18 20:21 34.378319 -119.016079 143 26452ft 251kts
13-Feb-18 20:22 34.329158 -118.959869 143 24952ft 242kts
13-Feb-18 20:23 34.281323 -118.905323 143 23439ft 236kts
13-Feb-18 20:24 34.230893 -118.850188 157 21950ft 252kts
13-Feb-18 20:25 34.167767 -118.821945 164 20656ft 249kts
13-Feb-18 20:26 34.104400 -118.796610 164 19132ft 240kts
13-Feb-18 20:27 34.041650 -118.772078 164 17606ft 237kts
13-Feb-18 20:28 33.979570 -118.748039 163 16080ft 235kts
13-Feb-18 20:29 33.918018 -118.724209 162 14551ft 233kts
13-Feb-18 20:30 33.858845 -118.701368 162 13111ft 230kts
13-Feb-18 20:31 33.798549 -118.678108 162 12997ft 230kts
13-Feb-18 20:32 33.737276 -118.654922 163 12626ft 238kts
13-Feb-18 20:33 33.676058 -118.633063 159 11126ft 227kts
13-Feb-18 20:34 33.668126 -118.563432 81 9623ft 237kts
13-Feb-18 20:35 33.681244 -118.487263 81 8127ft 232kts
13-Feb-18 20:36 33.693486 -118.413833 81 6626ft 216kts
13-Feb-18 20:37 33.703968 -118.349071 81 5239ft 212kts
13-Feb-18 20:38 33.707345 -118.282092 92 4993ft 214kts
13-Feb-18 20:39 33.707545 -118.222323 92 4991ft 212kts
13-Feb-18 20:40 33.707878 -118.154159 92 4988ft 175kts
13-Feb-18 20:41 33.708584 -118.099812 92 4990ft 164kts
13-Feb-18 20:42 33.708956 -118.042311 92 3926ft 177kts
13-Feb-18 20:43 33.708822 -117.989366 92 2986ft 137kts
13-Feb-18 20:44 33.712023 -117.942785 84 2996ft 161kts
13-Feb-18 20:45 33.717624 -117.891362 86 2678ft 151kts
13-Feb-18 20:46 33.704861 -117.850478 181 1359ft 120kts
13-Feb-18 20:47 33.676126 -117.868638 204 59ft 90kts
13-Feb-18 20:48 33.669197 -117.871709 130 59ft 0kts
13-Feb-18 20:49 33.670346 -117.869627 42 59ft 10kts
13-Feb-18 20:50 33.671437 -117.867572 34 59ft 0kts
13-Feb-18 20:51 33.671437 -117.867572 34 59ft 0kts
13-Feb-18 20:52 33.671437 -117.867572 34 59ft 0kts
13-Feb-18 20:53 33.671437 -117.867572 34 59ft 0kts
13-Feb-18 20:54 33.671437 -117.867572 34 59ft 0kts

Navigation Log

Ident Type
Flight plan parsing failed, navigation log unavailable